sensor_id;sensor_type;location;lat;lon;timestamp;pressure;altitude;pressure_sealevel;temperature;humidity
58955;BME280;45815;52.334;5.024;2023-05-08T00:00:16;102125.88;;;14.05;100.00
58955;BME280;45815;52.334;5.024;2023-05-08T00:02:41;102131.03;;;14.02;100.00
58955;BME280;45815;52.334;5.024;2023-05-08T00:05:07;102127.50;;;14.00;100.00
58955;BME280;45815;52.334;5.024;2023-05-08T00:07:32;102127.44;;;13.99;100.00
58955;BME280;45815;52.334;5.024;2023-05-08T00:09:57;102126.47;;;13.95;100.00
58955;BME280;45815;52.334;5.024;2023-05-08T00:12:23;102111.31;;;13.88;100.00
58955;BME280;45815;52.334;5.024;2023-05-08T00:14:48;102121.13;;;13.92;100.00
58955;BME280;45815;52.334;5.024;2023-05-08T00:17:13;102123.75;;;13.92;100.00
58955;BME280;45815;52.334;5.024;2023-05-08T00:19:39;102121.97;;;13.91;100.00
58955;BME280;45815;52.334;5.024;2023-05-08T00:22:04;102131.59;;;13.89;100.00
58955;BME280;45815;52.334;5.024;2023-05-08T00:24:29;102132.38;;;13.85;100.00
58955;BME280;45815;52.334;5.024;2023-05-08T00:26:55;102138.50;;;13.84;100.00
58955;BME280;45815;52.334;5.024;2023-05-08T00:29:20;102136.66;;;13.81;100.00
58955;BME280;45815;52.334;5.024;2023-05-08T00:31:46;102140.16;;;13.80;100.00
58955;BME280;45815;52.334;5.024;2023-05-08T00:34:11;102125.16;;;13.78;100.00
58955;BME280;45815;52.334;5.024;2023-05-08T00:36:37;102127.78;;;13.78;100.00
58955;BME280;45815;52.334;5.024;2023-05-08T00:39:02;102114.34;;;13.68;100.00
58955;BME280;45815;52.334;5.024;2023-05-08T00:41:28;102132.94;;;13.73;100.00
58955;BME280;45815;52.334;5.024;2023-05-08T00:43:53;102126.66;;;13.69;100.00
58955;BME280;45815;52.334;5.024;2023-05-08T00:46:19;102139.84;;;13.69;100.00
58955;BME280;45815;52.334;5.024;2023-05-08T00:48:44;102120.47;;;13.67;100.00
58955;BME280;45815;52.334;5.024;2023-05-08T00:51:11;102126.59;;;13.66;100.00
58955;BME280;45815;52.334;5.024;2023-05-08T00:53:39;102126.53;;;13.63;100.00
58955;BME280;45815;52.334;5.024;2023-05-08T00:56:09;102126.53;;;13.63;100.00
58955;BME280;45815;52.334;5.024;2023-05-08T00:58:36;102122.88;;;13.58;100.00
58955;BME280;45815;52.334;5.024;2023-05-08T01:01:02;102123.84;;;13.62;100.00
58955;BME280;45815;52.334;5.024;2023-05-08T01:03:29;102124.66;;;13.59;100.00
58955;BME280;45815;52.334;5.024;2023-05-08T01:05:56;102113.16;;;13.57;100.00
58955;BME280;45815;52.334;5.024;2023-05-08T01:08:21;102119.28;;;13.56;100.00
58955;BME280;45815;52.334;5.024;2023-05-08T01:10:57;102118.34;;;13.54;100.00
58955;BME280;45815;52.334;5.024;2023-05-08T01:18:43;102120.81;;;13.48;100.00
58955;BME280;45815;52.334;5.024;2023-05-08T01:21:22;102129.53;;;13.44;100.00
58955;BME280;45815;52.334;5.024;2023-05-08T01:32:42;102130.16;;;13.35;100.00
58955;BME280;45815;52.334;5.024;2023-05-08T01:35:26;102128.19;;;13.28;100.00
58955;BME280;45815;52.334;5.024;2023-05-08T01:37:59;102130.00;;;13.30;100.00
58955;BME280;45815;52.334;5.024;2023-05-08T01:40:58;102122.69;;;13.22;100.00
58955;BME280;45815;52.334;5.024;2023-05-08T01:43:44;102111.06;;;13.15;100.00
58955;BME280;45815;52.334;5.024;2023-05-08T01:46:18;102123.69;;;13.25;100.00
58955;BME280;45815;52.334;5.024;2023-05-08T01:48:50;102115.53;;;13.18;100.00
58955;BME280;45815;52.334;5.024;2023-05-08T01:51:26;102127.06;;;13.21;100.00
58955;BME280;45815;52.334;5.024;2023-05-08T01:53:58;102123.50;;;13.19;100.00
58955;BME280;45815;52.334;5.024;2023-05-08T01:56:27;102120.84;;;13.19;100.00
58955;BME280;45815;52.334;5.024;2023-05-08T01:58:53;102129.63;;;13.18;100.00
58955;BME280;45815;52.334;5.024;2023-05-08T02:01:23;102119.91;;;13.17;100.00
58955;BME280;45815;52.334;5.024;2023-05-08T02:03:50;102125.13;;;13.14;100.00
58955;BME280;45815;52.334;5.024;2023-05-08T02:06:19;102128.59;;;13.13;100.00
58955;BME280;45815;52.334;5.024;2023-05-08T02:08:46;102126.81;;;13.12;100.00
58955;BME280;45815;52.334;5.024;2023-05-08T02:11:13;102132.88;;;13.09;100.00
58955;BME280;45815;52.334;5.024;2023-05-08T02:13:39;102140.75;;;13.08;100.00
58955;BME280;45815;52.334;5.024;2023-05-08T02:16:07;102133.69;;;13.07;100.00
58955;BME280;45815;52.334;5.024;2023-05-08T02:18:33;102134.44;;;13.03;100.00
58955;BME280;45815;52.334;5.024;2023-05-08T02:21:01;102137.88;;;13.00;100.00
58955;BME280;45815;52.334;5.024;2023-05-08T02:23:29;102137.88;;;13.00;100.00
58955;BME280;45815;52.334;5.024;2023-05-08T02:25:55;102133.50;;;13.01;100.00
58955;BME280;45815;52.334;5.024;2023-05-08T02:28:22;102142.28;;;13.00;100.00
58955;BME280;45815;52.334;5.024;2023-05-08T02:30:49;102150.06;;;12.97;100.00
58955;BME280;45815;52.334;5.024;2023-05-08T02:33:17;102148.22;;;12.94;100.00
58955;BME280;45815;52.334;5.024;2023-05-08T02:35:43;102142.00;;;12.91;100.00
58955;BME280;45815;52.334;5.024;2023-05-08T02:38:11;102138.41;;;12.88;100.00
58955;BME280;45815;52.334;5.024;2023-05-08T02:40:39;102147.16;;;12.87;100.00
58955;BME280;45815;52.334;5.024;2023-05-08T02:43:06;102140.97;;;12.85;100.00
58955;BME280;45815;52.334;5.024;2023-05-08T02:45:51;102137.13;;;12.76;100.00
58955;BME280;45815;52.334;5.024;2023-05-08T02:50:59;102125.75;;;12.77;100.00
58955;BME280;45815;52.334;5.024;2023-05-08T02:53:33;102124.72;;;12.72;100.00
58955;BME280;45815;52.334;5.024;2023-05-08T02:56:17;102125.41;;;12.66;100.00
58955;BME280;45815;52.334;5.024;2023-05-08T02:58:52;102126.31;;;12.66;100.00
58955;BME280;45815;52.334;5.024;2023-05-08T03:01:24;102123.66;;;12.66;100.00
58955;BME280;45815;52.334;5.024;2023-05-08T03:04:02;102111.22;;;12.61;100.00
58955;BME280;45815;52.334;5.024;2023-05-08T03:06:32;102121.09;;;12.68;100.00
58955;BME280;45815;52.334;5.024;2023-05-08T03:09:00;102118.53;;;12.71;100.00
58955;BME280;45815;52.334;5.024;2023-05-08T03:11:39;102114.22;;;12.73;100.00
58955;BME280;45815;52.334;5.024;2023-05-08T03:14:10;102109.81;;;12.72;100.00
58955;BME280;45815;52.334;5.024;2023-05-08T03:16:38;102118.69;;;12.76;100.00
58955;BME280;45815;52.334;5.024;2023-05-08T03:19:35;102121.19;;;12.71;100.00
58955;BME280;45815;52.334;5.024;2023-05-08T03:22:04;102120.50;;;12.77;100.00
58955;BME280;45815;52.334;5.024;2023-05-08T03:24:33;102120.44;;;12.75;100.00
58955;BME280;45815;52.334;5.024;2023-05-08T03:27:02;102117.72;;;12.72;100.00
58955;BME280;45815;52.334;5.024;2023-05-08T03:29:28;102111.34;;;12.65;100.00
58955;BME280;45815;52.334;5.024;2023-05-08T03:31:56;102115.06;;;12.72;100.00
58955;BME280;45815;52.334;5.024;2023-05-08T03:34:23;102096.56;;;12.69;100.00
58955;BME280;45815;52.334;5.024;2023-05-08T03:36:50;102110.91;;;12.80;100.00
58955;BME280;45815;52.334;5.024;2023-05-08T03:39:16;102113.69;;;12.85;100.00
58955;BME280;45815;52.334;5.024;2023-05-08T03:41:42;102118.13;;;12.86;100.00
58955;BME280;45815;52.334;5.024;2023-05-08T03:44:08;102114.63;;;12.87;100.00
58955;BME280;45815;52.334;5.024;2023-05-08T03:46:36;102117.38;;;12.90;100.00
58955;BME280;45815;52.334;5.024;2023-05-08T03:49:07;102116.53;;;12.91;100.00
58955;BME280;45815;52.334;5.024;2023-05-08T03:51:36;102110.16;;;12.84;100.00
58955;BME280;45815;52.334;5.024;2023-05-08T03:54:03;102119.91;;;12.87;100.00
58955;BME280;45815;52.334;5.024;2023-05-08T03:56:28;102114.56;;;12.84;100.00
58955;BME280;45815;52.334;5.024;2023-05-08T03:59:10;102113.38;;;12.74;100.00
58955;BME280;45815;52.334;5.024;2023-05-08T04:02:27;102108.13;;;12.76;100.00
58955;BME280;45815;52.334;5.024;2023-05-08T04:09:43;102118.44;;;12.68;100.00
58955;BME280;45815;52.334;5.024;2023-05-08T04:12:21;102127.38;;;12.73;100.00
58955;BME280;45815;52.334;5.024;2023-05-08T04:14:57;102130.03;;;12.73;100.00
58955;BME280;45815;52.334;5.024;2023-05-08T04:17:41;102128.09;;;12.67;100.00
58955;BME280;45815;52.334;5.024;2023-05-08T04:20:13;102129.06;;;12.71;100.00
58955;BME280;45815;52.334;5.024;2023-05-08T04:22:42;102131.78;;;12.73;100.00
58955;BME280;45815;52.334;5.024;2023-05-08T04:25:09;102129.19;;;12.74;100.00
58955;BME280;45815;52.334;5.024;2023-05-08T04:27:37;102133.53;;;12.72;100.00
58955;BME280;45815;52.334;5.024;2023-05-08T04:30:04;102137.09;;;12.74;100.00
58955;BME280;45815;52.334;5.024;2023-05-08T04:32:30;102141.63;;;12.78;100.00
58955;BME280;45815;52.334;5.024;2023-05-08T04:34:57;102149.56;;;12.80;100.00
58955;BME280;45815;52.334;5.024;2023-05-08T04:37:27;102150.50;;;12.82;100.00
58955;BME280;45815;52.334;5.024;2023-05-08T04:39:55;102150.56;;;12.83;100.00
58955;BME280;45815;52.334;5.024;2023-05-08T04:42:22;102155.81;;;12.83;100.00
58955;BME280;45815;52.334;5.024;2023-05-08T04:44:48;102157.69;;;12.87;100.00
58955;BME280;45815;52.334;5.024;2023-05-08T04:47:14;102162.22;;;12.92;100.00
58955;BME280;45815;52.334;5.024;2023-05-08T04:49:40;102159.94;;;13.04;100.00
58955;BME280;45815;52.334;5.024;2023-05-08T04:52:05;102163.78;;;13.14;100.00
58955;BME280;45815;52.334;5.024;2023-05-08T04:54:32;102156.03;;;13.20;100.00
58955;BME280;45815;52.334;5.024;2023-05-08T04:56:58;102160.50;;;13.22;100.00
58955;BME280;45815;52.334;5.024;2023-05-08T04:59:24;102164.22;;;13.27;100.00
58955;BME280;45815;52.334;5.024;2023-05-08T05:01:50;102168.69;;;13.30;100.00
58955;BME280;45815;52.334;5.024;2023-05-08T05:04:16;102169.66;;;13.34;100.00
58955;BME280;45815;52.334;5.024;2023-05-08T05:06:41;102174.13;;;13.36;100.00
58955;BME280;45815;52.334;5.024;2023-05-08T05:09:07;102183.78;;;13.36;100.00
58955;BME280;45815;52.334;5.024;2023-05-08T05:11:33;102169.50;;;13.29;100.00
58955;BME280;45815;52.334;5.024;2023-05-08T05:13:59;102192.63;;;13.38;100.00
58955;BME280;45815;52.334;5.024;2023-05-08T05:16:25;102178.41;;;13.33;100.00
58955;BME280;45815;52.334;5.024;2023-05-08T05:18:51;102195.19;;;13.35;100.00
58955;BME280;45815;52.334;5.024;2023-05-08T05:21:16;102204.13;;;13.40;100.00
58955;BME280;45815;52.334;5.024;2023-05-08T05:23:42;102194.59;;;13.45;100.00
58955;BME280;45815;52.334;5.024;2023-05-08T05:26:07;102203.53;;;13.50;100.00
58955;BME280;45815;52.334;5.024;2023-05-08T05:28:33;102200.19;;;13.56;100.00
58955;BME280;45815;52.334;5.024;2023-05-08T05:30:59;102196.00;;;13.64;100.00
58955;BME280;45815;52.334;5.024;2023-05-08T05:33:25;102196.19;;;13.70;100.00
58955;BME280;45815;52.334;5.024;2023-05-08T05:35:50;102199.03;;;13.78;100.00
58955;BME280;45815;52.334;5.024;2023-05-08T05:38:16;102202.69;;;13.83;100.00
58955;BME280;45815;52.334;5.024;2023-05-08T05:40:41;102202.88;;;13.89;100.00
58955;BME280;45815;52.334;5.024;2023-05-08T05:43:07;102204.75;;;13.93;100.00
58955;BME280;45815;52.334;5.024;2023-05-08T05:45:32;102205.75;;;13.98;100.00
58955;BME280;45815;52.334;5.024;2023-05-08T05:47:57;102205.91;;;14.04;100.00
58955;BME280;45815;52.334;5.024;2023-05-08T05:50:24;102210.50;;;14.11;100.00
58955;BME280;45815;52.334;5.024;2023-05-08T05:52:53;102199.22;;;14.19;100.00
58955;BME280;45815;52.334;5.024;2023-05-08T05:55:19;102214.41;;;14.26;100.00
58955;BME280;45815;52.334;5.024;2023-05-08T05:57:46;102212.78;;;14.32;100.00
58955;BME280;45815;52.334;5.024;2023-05-08T06:00:12;102219.91;;;14.35;100.00
58955;BME280;45815;52.334;5.024;2023-05-08T06:02:43;102215.56;;;14.37;100.00
58955;BME280;45815;52.334;5.024;2023-05-08T06:05:12;102215.66;;;14.42;100.00
58955;BME280;45815;52.334;5.024;2023-05-08T06:07:37;102221.06;;;14.45;100.00
58955;BME280;45815;52.334;5.024;2023-05-08T06:10:04;102221.88;;;14.42;100.00
58955;BME280;45815;52.334;5.024;2023-05-08T06:12:30;102229.88;;;14.47;100.00
58955;BME280;45815;52.334;5.024;2023-05-08T06:14:55;102215.78;;;14.45;100.00
58955;BME280;45815;52.334;5.024;2023-05-08T06:17:21;102219.31;;;14.47;100.00
58955;BME280;45815;52.334;5.024;2023-05-08T06:19:47;102230.25;;;14.61;100.00
58955;BME280;45815;52.334;5.024;2023-05-08T06:22:18;102233.97;;;14.67;100.00
58955;BME280;45815;52.334;5.024;2023-05-08T06:24:43;102226.06;;;14.69;100.00
58955;BME280;45815;52.334;5.024;2023-05-08T06:27:10;102231.53;;;14.75;100.00
58955;BME280;45815;52.334;5.024;2023-05-08T06:29:35;102229.88;;;14.80;100.00
58955;BME280;45815;52.334;5.024;2023-05-08T06:32:01;102240.53;;;14.83;100.00
58955;BME280;45815;52.334;5.024;2023-05-08T06:34:26;102234.47;;;14.87;100.00
58955;BME280;45815;52.334;5.024;2023-05-08T06:36:51;102234.50;;;14.90;100.00
58955;BME280;45815;52.334;5.024;2023-05-08T06:39:17;102237.94;;;14.86;100.00
58955;BME280;45815;52.334;5.024;2023-05-08T06:41:46;102228.16;;;14.82;100.00
58955;BME280;45815;52.334;5.024;2023-05-08T06:44:16;102227.25;;;14.82;100.00
58955;BME280;45815;52.334;5.024;2023-05-08T06:46:42;102224.59;;;14.80;100.00
58955;BME280;45815;52.334;5.024;2023-05-08T06:49:07;102222.06;;;14.85;100.00
58955;BME280;45815;52.334;5.024;2023-05-08T06:51:32;102219.63;;;14.94;100.00
58955;BME280;45815;52.334;5.024;2023-05-08T06:54:00;102205.50;;;14.93;100.00
58955;BME280;45815;52.334;5.024;2023-05-08T06:56:25;102221.66;;;15.06;100.00
58955;BME280;45815;52.334;5.024;2023-05-08T06:58:51;102209.56;;;15.17;100.00
58955;BME280;45815;52.334;5.024;2023-05-08T07:01:16;102210.59;;;15.24;100.00
58955;BME280;45815;52.334;5.024;2023-05-08T07:03:42;102207.22;;;15.31;100.00
58955;BME280;45815;52.334;5.024;2023-05-08T07:06:07;102193.13;;;15.32;100.00
58955;BME280;45815;52.334;5.024;2023-05-08T07:08:34;102193.19;;;15.35;100.00
58955;BME280;45815;52.334;5.024;2023-05-08T07:10:59;102210.22;;;15.48;100.00
58955;BME280;45815;52.334;5.024;2023-05-08T07:13:25;102204.94;;;15.48;100.00
58955;BME280;45815;52.334;5.024;2023-05-08T07:15:50;102206.75;;;15.52;100.00
58955;BME280;45815;52.334;5.024;2023-05-08T07:18:16;102194.34;;;15.48;100.00
58955;BME280;45815;52.334;5.024;2023-05-08T07:20:41;102205.03;;;15.52;100.00
58955;BME280;45815;52.334;5.024;2023-05-08T07:23:07;102209.41;;;15.52;100.00
58955;BME280;45815;52.334;5.024;2023-05-08T07:25:32;102208.47;;;15.50;100.00
58955;BME280;45815;52.334;5.024;2023-05-08T07:27:58;102204.16;;;15.53;100.00
58955;BME280;45815;52.334;5.024;2023-05-08T07:30:23;102201.59;;;15.58;100.00
58955;BME280;45815;52.334;5.024;2023-05-08T07:32:48;102197.19;;;15.58;100.00
58955;BME280;45815;52.334;5.024;2023-05-08T07:35:14;102206.09;;;15.62;100.00
58955;BME280;45815;52.334;5.024;2023-05-08T07:37:39;102205.38;;;15.69;100.00
58955;BME280;45815;52.334;5.024;2023-05-08T07:40:05;102198.97;;;15.58;100.00
58955;BME280;45815;52.334;5.024;2023-05-08T07:42:40;102197.97;;;15.53;100.00
58955;BME280;45815;52.334;5.024;2023-05-08T07:45:07;102199.00;;;15.59;100.00
58955;BME280;45815;52.334;5.024;2023-05-08T07:47:33;102200.81;;;15.63;100.00
58955;BME280;45815;52.334;5.024;2023-05-08T07:49:58;102207.25;;;15.73;100.00
58955;BME280;45815;52.334;5.024;2023-05-08T07:52:23;102206.47;;;15.79;100.00
58955;BME280;45815;52.334;5.024;2023-05-08T07:54:49;102196.91;;;15.86;100.00
58955;BME280;45815;52.334;5.024;2023-05-08T07:57:14;102199.75;;;15.98;100.00
58955;BME280;45815;52.334;5.024;2023-05-08T07:59:39;102201.75;;;16.10;100.00
58955;BME280;45815;52.334;5.024;2023-05-08T08:02:05;102196.53;;;16.14;100.00
58955;BME280;45815;52.334;5.024;2023-05-08T08:04:31;102198.22;;;16.11;100.00
58955;BME280;45815;52.334;5.024;2023-05-08T08:06:57;102194.81;;;16.16;100.00
58955;BME280;45815;52.334;5.024;2023-05-08T08:09:22;102197.44;;;16.16;100.00
58955;BME280;45815;52.334;5.024;2023-05-08T08:11:48;102179.84;;;16.18;100.00
58955;BME280;45815;52.334;5.024;2023-05-08T08:14:13;102192.31;;;16.25;100.00
58955;BME280;45815;52.334;5.024;2023-05-08T08:16:39;102188.75;;;16.23;100.00
58955;BME280;45815;52.334;5.024;2023-05-08T08:19:04;102180.91;;;16.31;100.00
58955;BME280;45815;52.334;5.024;2023-05-08T08:21:29;102184.59;;;16.41;100.00
58955;BME280;45815;52.334;5.024;2023-05-08T08:23:55;102189.09;;;16.45;100.00
58955;BME280;45815;52.334;5.024;2023-05-08T08:26:21;102191.88;;;16.51;100.00
58955;BME280;45815;52.334;5.024;2023-05-08T08:28:46;102193.56;;;16.48;100.00
58955;BME280;45815;52.334;5.024;2023-05-08T08:31:12;102192.78;;;16.53;100.00
58955;BME280;45815;52.334;5.024;2023-05-08T08:33:37;102182.22;;;16.56;100.00
58955;BME280;45815;52.334;5.024;2023-05-08T08:36:03;102194.69;;;16.63;100.00
58955;BME280;45815;52.334;5.024;2023-05-08T08:38:28;102192.09;;;16.66;100.00
58955;BME280;45815;52.334;5.024;2023-05-08T08:40:53;102188.59;;;16.69;100.00
58955;BME280;45815;52.334;5.024;2023-05-08T08:43:19;102190.34;;;16.67;100.00
58955;BME280;45815;52.334;5.024;2023-05-08T08:45:44;102191.38;;;16.77;100.00
58955;BME280;45815;52.334;5.024;2023-05-08T08:48:10;102196.63;;;16.72;100.00
58955;BME280;45815;52.334;5.024;2023-05-08T08:50:41;102196.53;;;16.67;100.00
58955;BME280;45815;52.334;5.024;2023-05-08T08:53:20;102199.03;;;16.60;100.00
58955;BME280;45815;52.334;5.024;2023-05-08T08:55:49;102203.59;;;16.68;100.00
58955;BME280;45815;52.334;5.024;2023-05-08T08:58:26;102201.06;;;16.76;100.00
58955;BME280;45815;52.334;5.024;2023-05-08T09:00:56;102192.25;;;16.77;100.00
58955;BME280;45815;52.334;5.024;2023-05-08T09:03:22;102194.97;;;16.79;100.00
58955;BME280;45815;52.334;5.024;2023-05-08T09:05:48;102196.88;;;16.89;100.00
58955;BME280;45815;52.334;5.024;2023-05-08T09:08:14;102190.69;;;16.90;100.00
58955;BME280;45815;52.334;5.024;2023-05-08T09:10:39;102187.16;;;16.90;100.00
58955;BME280;45815;52.334;5.024;2023-05-08T09:13:05;102186.28;;;16.89;100.00
58955;BME280;45815;52.334;5.024;2023-05-08T09:15:31;102186.25;;;16.86;100.00
58955;BME280;45815;52.334;5.024;2023-05-08T09:17:57;102192.50;;;16.91;100.00
58955;BME280;45815;52.334;5.024;2023-05-08T09:20:23;102189.94;;;16.99;100.00
58955;BME280;45815;52.334;5.024;2023-05-08T09:22:50;102181.16;;;17.01;100.00
58955;BME280;45815;52.334;5.024;2023-05-08T09:25:15;102188.41;;;17.15;100.00
58955;BME280;45815;52.334;5.024;2023-05-08T09:27:43;102187.44;;;17.08;100.00
58955;BME280;45815;52.334;5.024;2023-05-08T09:30:10;102184.72;;;17.03;100.00
58955;BME280;45815;52.334;5.024;2023-05-08T09:32:38;102184.81;;;17.09;100.00
58955;BME280;45815;52.334;5.024;2023-05-08T09:35:05;102191.88;;;17.11;100.00
58955;BME280;45815;52.334;5.024;2023-05-08T09:37:31;102189.25;;;17.12;100.00
58955;BME280;45815;52.334;5.024;2023-05-08T09:40:26;102191.97;;;17.17;100.00
58955;BME280;45815;52.334;5.024;2023-05-08T09:42:51;102185.13;;;17.33;100.00
58955;BME280;45815;52.334;5.024;2023-05-08T09:45:30;102192.22;;;17.35;100.00
58955;BME280;45815;52.334;5.024;2023-05-08T09:47:56;102183.41;;;17.38;100.00
58955;BME280;45815;52.334;5.024;2023-05-08T09:50:21;102173.59;;;17.32;100.00
58955;BME280;45815;52.334;5.024;2023-05-08T09:52:48;102182.59;;;17.46;100.00
58955;BME280;45815;52.334;5.024;2023-05-08T09:55:14;102182.63;;;17.48;100.00
58955;BME280;45815;52.334;5.024;2023-05-08T09:57:51;102177.41;;;17.56;100.00
58955;BME280;45815;52.334;5.024;2023-05-08T10:00:17;102189.06;;;17.65;100.00
58955;BME280;45815;52.334;5.024;2023-05-08T10:02:57;102185.53;;;17.69;100.00
58955;BME280;45815;52.334;5.024;2023-05-08T10:05:28;102184.84;;;17.83;100.00
58955;BME280;45815;52.334;5.024;2023-05-08T10:07:56;102185.81;;;17.92;100.00
58955;BME280;45815;52.334;5.024;2023-05-08T10:10:26;102177.88;;;17.94;100.00
58955;BME280;45815;52.334;5.024;2023-05-08T10:12:56;102180.53;;;17.96;100.00
58955;BME280;45815;52.334;5.024;2023-05-08T10:15:24;102184.06;;;17.91;100.00
58955;BME280;45815;52.334;5.024;2023-05-08T10:20:18;102180.63;;;18.03;100.00
58955;BME280;45815;52.334;5.024;2023-05-08T10:22:47;102180.75;;;18.17;100.00
58955;BME280;45815;52.334;5.024;2023-05-08T10:25:16;102179.94;;;18.24;100.00
58955;BME280;45815;52.334;5.024;2023-05-08T10:28:28;102173.50;;;18.01;100.00
58955;BME280;45815;52.334;5.024;2023-05-08T10:30:59;102180.47;;;17.86;100.00
58955;BME280;45815;52.334;5.024;2023-05-08T10:33:29;102185.97;;;18.08;100.00
58955;BME280;45815;52.334;5.024;2023-05-08T10:35:59;102186.16;;;18.26;100.00
58955;BME280;45815;52.334;5.024;2023-05-08T10:38:25;102173.81;;;18.36;100.00
58955;BME280;45815;52.334;5.024;2023-05-08T10:40:52;102183.63;;;18.45;100.00
58955;BME280;45815;52.334;5.024;2023-05-08T10:43:23;102178.34;;;18.48;100.00
58955;BME280;45815;52.334;5.024;2023-05-08T10:45:50;102175.75;;;18.57;100.00
58955;BME280;45815;52.334;5.024;2023-05-08T10:53:58;102161.75;;;18.80;100.00
58955;BME280;45815;52.334;5.024;2023-05-08T10:56:27;102162.72;;;18.98;100.00
58955;BME280;45815;52.334;5.024;2023-05-08T10:58:56;102162.88;;;19.26;100.00
58955;BME280;45815;52.334;5.024;2023-05-08T11:01:23;102154.94;;;19.34;100.00
58955;BME280;45815;52.334;5.024;2023-05-08T11:03:49;102154.06;;;19.36;100.00
58955;BME280;45815;52.334;5.024;2023-05-08T11:06:15;102167.38;;;19.41;100.00
58955;BME280;45815;52.334;5.024;2023-05-08T11:08:49;102163.78;;;19.36;100.00
58955;BME280;45815;52.334;5.024;2023-05-08T11:11:29;102162.06;;;19.41;100.00
58955;BME280;45815;52.334;5.024;2023-05-08T11:19:24;102151.41;;;19.47;100.00
58955;BME280;45815;52.334;5.024;2023-05-08T11:24:47;102146.00;;;19.23;100.00
58955;BME280;45815;52.334;5.024;2023-05-08T11:27:14;102144.25;;;19.28;100.00
58955;BME280;45815;52.334;5.024;2023-05-08T11:29:39;102127.47;;;19.46;100.00
58955;BME280;45815;52.334;5.024;2023-05-08T11:32:05;102135.53;;;19.72;100.00
58955;BME280;45815;52.334;5.024;2023-05-08T11:37:09;102130.25;;;20.02;100.00
58955;BME280;45815;52.334;5.024;2023-05-08T11:39:35;102124.00;;;20.17;100.00
58955;BME280;45815;52.334;5.024;2023-05-08T11:47:37;102107.91;;;20.88;100.00
58955;BME280;45815;52.334;5.024;2023-05-08T11:50:04;102108.66;;;21.21;100.00
58955;BME280;45815;52.334;5.024;2023-05-08T11:52:37;102114.81;;;21.38;100.00
58955;BME280;45815;52.334;5.024;2023-05-08T11:55:04;102107.63;;;21.54;100.00
58955;BME280;45815;52.334;5.024;2023-05-08T11:57:30;102103.03;;;21.75;100.00
58955;BME280;45815;52.334;5.024;2023-05-08T11:59:56;102105.59;;;21.88;100.00
58955;BME280;45815;52.334;5.024;2023-05-08T12:02:38;102100.16;;;22.01;100.00
58955;BME280;45815;52.334;5.024;2023-05-08T12:05:05;102099.88;;;22.34;100.00
58955;BME280;45815;52.334;5.024;2023-05-08T12:07:31;102096.94;;;22.62;100.00
58955;BME280;45815;52.334;5.024;2023-05-08T12:09:56;102095.22;;;22.53;100.00
58955;BME280;45815;52.334;5.024;2023-05-08T12:12:22;102091.81;;;22.39;100.00
58955;BME280;45815;52.334;5.024;2023-05-08T12:14:50;102089.09;;;22.45;100.00
58955;BME280;45815;52.334;5.024;2023-05-08T12:17:16;102075.91;;;22.24;100.00
58955;BME280;45815;52.334;5.024;2023-05-08T12:19:43;102100.00;;;22.22;100.00
58955;BME280;45815;52.334;5.024;2023-05-08T12:22:08;102088.53;;;22.05;100.00
58955;BME280;45815;52.334;5.024;2023-05-08T12:24:33;102085.84;;;22.05;100.00
58955;BME280;45815;52.334;5.024;2023-05-08T12:26:59;102086.63;;;22.21;100.00
58955;BME280;45815;52.334;5.024;2023-05-08T12:29:24;102082.25;;;22.09;100.00
58955;BME280;45815;52.334;5.024;2023-05-08T12:31:50;102079.66;;;22.01;100.00
58955;BME280;45815;52.334;5.024;2023-05-08T12:34:16;102082.25;;;22.09;100.00
58955;BME280;45815;52.334;5.024;2023-05-08T12:36:42;102083.97;;;22.14;100.00
58955;BME280;45815;52.334;5.024;2023-05-08T12:39:12;102083.09;;;22.14;100.00
58955;BME280;45815;52.334;5.024;2023-05-08T12:41:47;102076.03;;;22.05;100.00
58955;BME280;45815;52.334;5.024;2023-05-08T12:44:39;102071.69;;;21.95;100.00
58955;BME280;45815;52.334;5.024;2023-05-08T12:47:04;102076.13;;;21.99;100.00
58955;BME280;45815;52.334;5.024;2023-05-08T12:49:31;102072.56;;;21.97;100.00
58955;BME280;45815;52.334;5.024;2023-05-08T12:52:07;102072.53;;;22.02;100.00
58955;BME280;45815;52.334;5.024;2023-05-08T12:56:59;102069.69;;;22.22;100.00
58955;BME280;45815;52.334;5.024;2023-05-08T12:59:30;102069.50;;;22.42;100.00
58955;BME280;45815;52.334;5.024;2023-05-08T13:01:56;102051.53;;;22.51;100.00
58955;BME280;45815;52.334;5.024;2023-05-08T13:04:21;102056.75;;;22.64;100.00
58955;BME280;45815;52.334;5.024;2023-05-08T13:06:56;102057.91;;;22.38;100.00
58955;BME280;45815;52.334;5.024;2023-05-08T13:09:21;102055.28;;;22.33;100.00
58955;BME280;45815;52.334;5.024;2023-05-08T13:11:47;102054.47;;;22.28;100.00
58955;BME280;45815;52.334;5.024;2023-05-08T13:14:13;102060.59;;;22.41;100.00
58955;BME280;45815;52.334;5.024;2023-05-08T13:16:43;102057.09;;;22.36;100.00
58955;BME280;45815;52.334;5.024;2023-05-08T13:19:09;102059.34;;;22.70;100.00
58955;BME280;45815;52.334;5.024;2023-05-08T13:21:34;102058.25;;;22.88;100.00
58955;BME280;45815;52.334;5.024;2023-05-08T13:23:59;102055.47;;;22.95;100.00
58955;BME280;45815;52.334;5.024;2023-05-08T13:26:25;102047.44;;;22.97;100.00
58955;BME280;45815;52.334;5.024;2023-05-08T13:28:51;102048.38;;;22.94;100.00
58955;BME280;45815;52.334;5.024;2023-05-08T13:31:16;102052.66;;;23.08;100.00
58955;BME280;45815;52.334;5.024;2023-05-08T13:33:42;102047.13;;;23.20;100.00